sensor_id;sensor_type;location;lat;lon;timestamp;pressure;altitude;pressure_sealevel;temperature;humidity
51249;BME280;39642;47.556;18.728;2023-03-07T00:00:33;98561.25;;;20.92;29.22
51249;BME280;39642;47.556;18.728;2023-03-07T00:02:59;98571.84;;;20.92;29.18
51249;BME280;39642;47.556;18.728;2023-03-07T00:05:25;98577.13;;;20.92;29.20
51249;BME280;39642;47.556;18.728;2023-03-07T00:07:51;98576.41;;;20.90;29.22
51249;BME280;39642;47.556;18.728;2023-03-07T00:10:17;98577.25;;;20.90;29.28
51249;BME280;39642;47.556;18.728;2023-03-07T00:12:43;98580.00;;;20.89;29.28
51249;BME280;39642;47.556;18.728;2023-03-07T00:15:09;98590.59;;;20.89;29.29
51249;BME280;39642;47.556;18.728;2023-03-07T00:17:36;98580.00;;;20.89;29.31
51249;BME280;39642;47.556;18.728;2023-03-07T00:20:04;98587.94;;;20.89;29.59
51249;BME280;39642;47.556;18.728;2023-03-07T00:22:34;98589.75;;;20.88;29.50
51249;BME280;39642;47.556;18.728;2023-03-07T00:25:00;98586.28;;;20.88;29.45
51249;BME280;39642;47.556;18.728;2023-03-07T00:27:26;98584.56;;;20.87;29.31
51249;BME280;39642;47.556;18.728;2023-03-07T00:29:52;98588.91;;;20.88;29.28
51249;BME280;39642;47.556;18.728;2023-03-07T00:32:17;98588.91;;;20.88;29.23
51249;BME280;39642;47.556;18.728;2023-03-07T00:34:43;98586.28;;;20.88;29.21
51249;BME280;39642;47.556;18.728;2023-03-07T00:37:09;98580.00;;;20.89;29.21
51249;BME280;39642;47.556;18.728;2023-03-07T00:39:35;98572.06;;;20.89;29.16
51249;BME280;39642;47.556;18.728;2023-03-07T00:42:01;98567.59;;;20.89;29.13
51249;BME280;39642;47.556;18.728;2023-03-07T00:44:27;98557.03;;;20.89;29.12
51249;BME280;39642;47.556;18.728;2023-03-07T00:46:55;98560.53;;;20.90;29.08
51249;BME280;39642;47.556;18.728;2023-03-07T00:49:21;98552.59;;;20.90;29.07
51249;BME280;39642;47.556;18.728;2023-03-07T00:51:47;98555.97;;;20.92;29.04
51249;BME280;39642;47.556;18.728;2023-03-07T00:54:14;98550.69;;;20.92;28.96
51249;BME280;39642;47.556;18.728;2023-03-07T00:56:40;98540.94;;;20.92;28.97
51249;BME280;39642;47.556;18.728;2023-03-07T00:59:06;98545.37;;;20.92;28.93
51249;BME280;39642;47.556;18.728;2023-03-07T01:01:32;98534.81;;;20.92;28.87
51249;BME280;39642;47.556;18.728;2023-03-07T01:03:58;98538.28;;;20.92;28.86
51249;BME280;39642;47.556;18.728;2023-03-07T01:06:27;98532.16;;;20.92;28.84
51249;BME280;39642;47.556;18.728;2023-03-07T01:08:56;98530.34;;;20.92;28.85
51249;BME280;39642;47.556;18.728;2023-03-07T01:11:22;98526.88;;;20.92;28.85
51249;BME280;39642;47.556;18.728;2023-03-07T01:13:48;98530.34;;;20.92;28.85
51249;BME280;39642;47.556;18.728;2023-03-07T01:16:20;98537.44;;;20.92;28.84
51249;BME280;39642;47.556;18.728;2023-03-07T01:18:52;98547.06;;;20.93;28.82
51249;BME280;39642;47.556;18.728;2023-03-07T01:21:23;98537.44;;;20.92;28.82
51249;BME280;39642;47.556;18.728;2023-03-07T01:23:50;98546.22;;;20.92;28.86
51249;BME280;39642;47.556;18.728;2023-03-07T01:26:18;98537.56;;;20.90;28.83
51249;BME280;39642;47.556;18.728;2023-03-07T01:28:46;98533.94;;;20.91;28.98
51249;BME280;39642;47.556;18.728;2023-03-07T01:31:12;98535.75;;;20.91;28.92
51249;BME280;39642;47.556;18.728;2023-03-07T01:33:38;98536.72;;;20.90;28.89
51249;BME280;39642;47.556;18.728;2023-03-07T01:36:04;98529.63;;;20.90;28.93
51249;BME280;39642;47.556;18.728;2023-03-07T01:38:39;98527.91;;;20.89;28.91
51249;BME280;39642;47.556;18.728;2023-03-07T01:41:05;98536.72;;;20.90;28.92
51249;BME280;39642;47.556;18.728;2023-03-07T01:43:33;98524.44;;;20.89;28.90
51249;BME280;39642;47.556;18.728;2023-03-07T01:46:24;98531.44;;;20.90;28.86
51249;BME280;39642;47.556;18.728;2023-03-07T01:49:09;98535.84;;;20.89;28.85
51249;BME280;39642;47.556;18.728;2023-03-07T01:51:36;98534.91;;;20.90;28.83
51249;BME280;39642;47.556;18.728;2023-03-07T01:54:04;98525.16;;;20.91;28.85
51249;BME280;39642;47.556;18.728;2023-03-07T01:56:31;98517.34;;;20.89;28.78
51249;BME280;39642;47.556;18.728;2023-03-07T01:58:57;98519.03;;;20.90;28.77
51249;BME280;39642;47.556;18.728;2023-03-07T02:01:24;98515.56;;;20.90;28.77
51249;BME280;39642;47.556;18.728;2023-03-07T02:03:54;98517.22;;;20.91;28.70
51249;BME280;39642;47.556;18.728;2023-03-07T02:06:23;98512.75;;;20.91;28.70
51249;BME280;39642;47.556;18.728;2023-03-07T02:08:53;98518.91;;;20.92;28.65
51249;BME280;39642;47.556;18.728;2023-03-07T02:11:21;98519.75;;;20.92;28.63
51249;BME280;39642;47.556;18.728;2023-03-07T02:13:47;98516.28;;;20.92;28.60
51249;BME280;39642;47.556;18.728;2023-03-07T02:16:13;98523.25;;;20.93;28.57
51249;BME280;39642;47.556;18.728;2023-03-07T02:18:44;98507.34;;;20.93;28.59
51249;BME280;39642;47.556;18.728;2023-03-07T02:28:56;98517.94;;;20.93;28.55
51249;BME280;39642;47.556;18.728;2023-03-07T02:31:23;98525.06;;;20.92;28.49
51249;BME280;39642;47.556;18.728;2023-03-07T02:33:49;98518.91;;;20.92;28.56
51249;BME280;39642;47.556;18.728;2023-03-07T02:36:27;98527.69;;;20.92;28.55
51249;BME280;39642;47.556;18.728;2023-03-07T02:38:55;98518.06;;;20.91;28.55
51249;BME280;39642;47.556;18.728;2023-03-07T02:41:28;98522.50;;;20.91;28.56
51249;BME280;39642;47.556;18.728;2023-03-07T02:43:54;98521.56;;;20.92;28.56
51249;BME280;39642;47.556;18.728;2023-03-07T02:46:20;98519.88;;;20.91;28.58
51249;BME280;39642;47.556;18.728;2023-03-07T02:48:46;98522.50;;;20.91;28.58
51249;BME280;39642;47.556;18.728;2023-03-07T02:51:12;98528.78;;;20.90;28.58
51249;BME280;39642;47.556;18.728;2023-03-07T02:53:38;98517.34;;;20.89;28.59
51249;BME280;39642;47.556;18.728;2023-03-07T02:56:05;98526.12;;;20.90;28.55
51249;BME280;39642;47.556;18.728;2023-03-07T02:58:31;98528.66;;;20.91;28.61
51249;BME280;39642;47.556;18.728;2023-03-07T03:00:58;98525.16;;;20.91;28.61
51249;BME280;39642;47.556;18.728;2023-03-07T03:03:24;98517.22;;;20.91;28.60
51249;BME280;39642;47.556;18.728;2023-03-07T03:05:50;98525.16;;;20.91;28.61
51249;BME280;39642;47.556;18.728;2023-03-07T03:08:16;98521.69;;;20.90;28.58
51249;BME280;39642;47.556;18.728;2023-03-07T03:10:42;98519.03;;;20.90;28.57
51249;BME280;39642;47.556;18.728;2023-03-07T03:13:07;98517.22;;;20.91;28.56
51249;BME280;39642;47.556;18.728;2023-03-07T03:15:33;98516.38;;;20.90;28.53
51249;BME280;39642;47.556;18.728;2023-03-07T03:17:59;98519.88;;;20.91;28.53
51249;BME280;39642;47.556;18.728;2023-03-07T03:20:25;98513.75;;;20.90;28.54
51249;BME280;39642;47.556;18.728;2023-03-07T03:22:52;98517.13;;;20.92;28.47
51249;BME280;39642;47.556;18.728;2023-03-07T03:25:19;98523.25;;;20.93;28.42
51249;BME280;39642;47.556;18.728;2023-03-07T03:27:47;98509.19;;;20.92;28.46
51249;BME280;39642;47.556;18.728;2023-03-07T03:30:13;98515.28;;;20.93;28.40
51249;BME280;39642;47.556;18.728;2023-03-07T03:32:40;98510.00;;;20.93;28.41
51249;BME280;39642;47.556;18.728;2023-03-07T03:35:06;98507.34;;;20.93;28.40
51249;BME280;39642;47.556;18.728;2023-03-07T03:37:33;98511.69;;;20.94;28.34
51249;BME280;39642;47.556;18.728;2023-03-07T03:39:59;98505.56;;;20.93;28.34
51249;BME280;39642;47.556;18.728;2023-03-07T03:42:25;98507.34;;;20.93;28.37
51249;BME280;39642;47.556;18.728;2023-03-07T03:44:50;98503.03;;;20.92;28.34
51249;BME280;39642;47.556;18.728;2023-03-07T03:47:16;98503.03;;;20.92;28.35
51249;BME280;39642;47.556;18.728;2023-03-07T03:49:42;98499.53;;;20.91;28.34
51249;BME280;39642;47.556;18.728;2023-03-07T03:52:08;98495.09;;;20.92;28.37
51249;BME280;39642;47.556;18.728;2023-03-07T03:54:34;98507.47;;;20.91;28.36
51249;BME280;39642;47.556;18.728;2023-03-07T03:57:00;98498.69;;;20.91;28.36
51249;BME280;39642;47.556;18.728;2023-03-07T03:59:26;98501.34;;;20.91;28.36
51249;BME280;39642;47.556;18.728;2023-03-07T04:01:52;98502.19;;;20.91;28.35
51249;BME280;39642;47.556;18.728;2023-03-07T04:04:20;98503.16;;;20.90;28.39
51249;BME280;39642;47.556;18.728;2023-03-07T04:06:46;98497.88;;;20.90;28.36
51249;BME280;39642;47.556;18.728;2023-03-07T04:09:11;98500.50;;;20.90;28.38
51249;BME280;39642;47.556;18.728;2023-03-07T04:11:37;98500.50;;;20.90;28.39
51249;BME280;39642;47.556;18.728;2023-03-07T04:14:03;98504.81;;;20.91;28.36
51249;BME280;39642;47.556;18.728;2023-03-07T04:16:29;98501.34;;;20.91;28.35
51249;BME280;39642;47.556;18.728;2023-03-07T04:18:56;98504.97;;;20.90;28.35
51249;BME280;39642;47.556;18.728;2023-03-07T04:21:22;98504.09;;;20.89;28.33
51249;BME280;39642;47.556;18.728;2023-03-07T04:23:48;98506.63;;;20.91;28.33
51249;BME280;39642;47.556;18.728;2023-03-07T04:26:15;98517.22;;;20.91;28.33
51249;BME280;39642;47.556;18.728;2023-03-07T04:28:42;98516.28;;;20.92;28.31
51249;BME280;39642;47.556;18.728;2023-03-07T04:31:10;98518.91;;;20.92;28.26
51249;BME280;39642;47.556;18.728;2023-03-07T04:33:36;98524.06;;;20.93;28.24
51249;BME280;39642;47.556;18.728;2023-03-07T04:36:02;98519.75;;;20.92;28.21
51249;BME280;39642;47.556;18.728;2023-03-07T04:38:29;98515.28;;;20.93;28.21
51249;BME280;39642;47.556;18.728;2023-03-07T04:40:54;98525.88;;;20.93;28.14
51249;BME280;39642;47.556;18.728;2023-03-07T04:43:20;98519.75;;;20.92;28.12
51249;BME280;39642;47.556;18.728;2023-03-07T04:45:46;98528.53;;;20.93;28.09
51249;BME280;39642;47.556;18.728;2023-03-07T04:48:12;98526.72;;;20.93;28.04
51249;BME280;39642;47.556;18.728;2023-03-07T04:50:38;98528.41;;;20.94;28.07
51249;BME280;39642;47.556;18.728;2023-03-07T04:53:04;98530.19;;;20.94;28.03
51249;BME280;39642;47.556;18.728;2023-03-07T04:55:30;98532.00;;;20.93;28.03
51249;BME280;39642;47.556;18.728;2023-03-07T04:57:56;98536.47;;;20.93;28.05
51249;BME280;39642;47.556;18.728;2023-03-07T05:00:22;98532.16;;;20.92;28.08
51249;BME280;39642;47.556;18.728;2023-03-07T05:02:49;98531.19;;;20.93;28.09
51249;BME280;39642;47.556;18.728;2023-03-07T05:05:16;98533.81;;;20.93;28.08
51249;BME280;39642;47.556;18.728;2023-03-07T05:07:42;98529.50;;;20.92;27.95
51249;BME280;39642;47.556;18.728;2023-03-07T05:10:09;98529.50;;;20.92;27.96
51249;BME280;39642;47.556;18.728;2023-03-07T05:12:35;98533.94;;;20.91;27.96
51249;BME280;39642;47.556;18.728;2023-03-07T05:15:01;98526.88;;;20.92;27.97
51249;BME280;39642;47.556;18.728;2023-03-07T05:17:28;98535.75;;;20.91;27.97
51249;BME280;39642;47.556;18.728;2023-03-07T05:19:55;98529.63;;;20.90;27.95
51249;BME280;39642;47.556;18.728;2023-03-07T05:22:21;98533.09;;;20.91;27.96
51249;BME280;39642;47.556;18.728;2023-03-07T05:24:46;98531.44;;;20.90;27.93
51249;BME280;39642;47.556;18.728;2023-03-07T05:27:12;98542.00;;;20.90;27.92
51249;BME280;39642;47.556;18.728;2023-03-07T05:29:38;98537.66;;;20.89;27.96
51249;BME280;39642;47.556;18.728;2023-03-07T05:32:04;98533.22;;;20.89;27.96
51249;BME280;39642;47.556;18.728;2023-03-07T05:34:30;98534.06;;;20.90;27.90
51249;BME280;39642;47.556;18.728;2023-03-07T05:36:56;98532.28;;;20.90;27.88
51249;BME280;39642;47.556;18.728;2023-03-07T05:39:23;98534.91;;;20.90;27.85
51249;BME280;39642;47.556;18.728;2023-03-07T05:41:50;98541.16;;;20.89;27.90
51249;BME280;39642;47.556;18.728;2023-03-07T05:44:16;98538.37;;;20.91;27.94
51249;BME280;39642;47.556;18.728;2023-03-07T05:46:41;98541.03;;;20.91;28.24
51249;BME280;39642;47.556;18.728;2023-03-07T05:49:07;98539.22;;;20.91;27.92
51249;BME280;39642;47.556;18.728;2023-03-07T05:51:33;98538.28;;;20.92;27.99
51249;BME280;39642;47.556;18.728;2023-03-07T05:53:59;98540.09;;;20.92;29.34
51249;BME280;39642;47.556;18.728;2023-03-07T05:56:25;98540.78;;;20.94;28.71
51249;BME280;39642;47.556;18.728;2023-03-07T05:58:51;98545.13;;;20.95;28.73
51249;BME280;39642;47.556;18.728;2023-03-07T06:01:17;98548.72;;;20.94;28.52
51249;BME280;39642;47.556;18.728;2023-03-07T06:03:42;98551.25;;;20.95;28.46
51249;BME280;39642;47.556;18.728;2023-03-07T06:06:10;98551.13;;;20.97;28.50
51249;BME280;39642;47.556;18.728;2023-03-07T06:08:37;98560.75;;;20.98;28.62
51249;BME280;39642;47.556;18.728;2023-03-07T06:11:03;98559.91;;;20.97;28.69
51249;BME280;39642;47.556;18.728;2023-03-07T06:13:29;98563.38;;;20.98;29.35
51249;BME280;39642;47.556;18.728;2023-03-07T06:15:56;98566.75;;;21.00;29.34
51249;BME280;39642;47.556;18.728;2023-03-07T06:18:23;98574.69;;;21.00;28.94
51249;BME280;39642;47.556;18.728;2023-03-07T06:20:54;98578.19;;;21.00;29.53
51249;BME280;39642;47.556;18.728;2023-03-07T06:23:20;98574.59;;;21.02;29.35
51249;BME280;39642;47.556;18.728;2023-03-07T06:25:46;98573.88;;;20.99;29.36
51249;BME280;39642;47.556;18.728;2023-03-07T06:28:12;98575.53;;;21.00;30.82
51249;BME280;39642;47.556;18.728;2023-03-07T06:30:38;98568.56;;;20.99;31.69
51249;BME280;39642;47.556;18.728;2023-03-07T06:33:04;98570.38;;;20.99;30.35
51249;BME280;39642;47.556;18.728;2023-03-07T06:35:30;98567.75;;;20.99;30.58
51249;BME280;39642;47.556;18.728;2023-03-07T06:37:56;98571.22;;;20.99;30.31
51249;BME280;39642;47.556;18.728;2023-03-07T06:40:21;98571.34;;;20.98;30.18
51249;BME280;39642;47.556;18.728;2023-03-07T06:42:47;98573.03;;;20.99;30.25
51249;BME280;39642;47.556;18.728;2023-03-07T06:45:13;98580.00;;;21.00;30.05
51249;BME280;39642;47.556;18.728;2023-03-07T06:47:39;98577.50;;;20.98;30.07
51249;BME280;39642;47.556;18.728;2023-03-07T06:50:05;98567.00;;;20.97;29.92
51249;BME280;39642;47.556;18.728;2023-03-07T06:52:31;98576.78;;;20.96;30.08
51249;BME280;39642;47.556;18.728;2023-03-07T06:54:58;98574.97;;;20.97;30.04
51249;BME280;39642;47.556;18.728;2023-03-07T06:57:25;98579.41;;;20.96;29.89
51249;BME280;39642;47.556;18.728;2023-03-07T06:59:51;98573.25;;;20.96;29.85
51249;BME280;39642;47.556;18.728;2023-03-07T07:02:17;98576.88;;;20.95;29.65
51249;BME280;39642;47.556;18.728;2023-03-07T07:04:43;98582.06;;;20.96;30.40
51249;BME280;39642;47.556;18.728;2023-03-07T07:07:08;98586.25;;;20.99;30.31
51249;BME280;39642;47.556;18.728;2023-03-07T07:09:34;98587.94;;;21.00;30.20
51249;BME280;39642;47.556;18.728;2023-03-07T07:12:03;98587.94;;;21.00;30.16
51249;BME280;39642;47.556;18.728;2023-03-07T07:14:30;98583.47;;;21.00;30.48
51249;BME280;39642;47.556;18.728;2023-03-07T07:16:57;98589.50;;;21.03;30.68
51249;BME280;39642;47.556;18.728;2023-03-07T07:19:23;98586.72;;;21.04;30.18
51249;BME280;39642;47.556;18.728;2023-03-07T07:21:51;98595.50;;;21.05;29.95
51249;BME280;39642;47.556;18.728;2023-03-07T07:24:17;98589.25;;;21.06;29.81
51249;BME280;39642;47.556;18.728;2023-03-07T07:26:43;98595.38;;;21.06;29.95
51249;BME280;39642;47.556;18.728;2023-03-07T07:29:09;98596.13;;;21.08;29.91
51249;BME280;39642;47.556;18.728;2023-03-07T07:31:35;98590.72;;;21.10;30.56
51249;BME280;39642;47.556;18.728;2023-03-07T07:34:01;98596.84;;;21.10;30.95
51249;BME280;39642;47.556;18.728;2023-03-07T07:36:27;98602.12;;;21.10;31.30
51249;BME280;39642;47.556;18.728;2023-03-07T07:38:53;98603.78;;;21.11;30.28
51249;BME280;39642;47.556;18.728;2023-03-07T07:41:19;98599.34;;;21.12;30.73
51249;BME280;39642;47.556;18.728;2023-03-07T07:43:45;98594.91;;;21.12;30.19
51249;BME280;39642;47.556;18.728;2023-03-07T07:46:15;98597.41;;;21.14;30.74
51249;BME280;39642;47.556;18.728;2023-03-07T07:48:41;98596.47;;;21.15;30.68
51249;BME280;39642;47.556;18.728;2023-03-07T07:51:07;98596.56;;;21.13;30.49
51249;BME280;39642;47.556;18.728;2023-03-07T07:53:32;98592.97;;;21.14;30.46
51249;BME280;39642;47.556;18.728;2023-03-07T07:55:58;98597.03;;;21.18;30.85
51249;BME280;39642;47.556;18.728;2023-03-07T07:58:24;98592.59;;;21.30;30.99
51249;BME280;39642;47.556;18.728;2023-03-07T08:00:50;98603.66;;;21.35;31.43
51249;BME280;39642;47.556;18.728;2023-03-07T08:03:16;98595.69;;;21.35;31.78
51249;BME280;39642;47.556;18.728;2023-03-07T08:05:44;98600.00;;;21.36;31.92
51249;BME280;39642;47.556;18.728;2023-03-07T08:08:10;98593.88;;;21.36;31.58
51249;BME280;39642;47.556;18.728;2023-03-07T08:10:36;98592.94;;;21.37;31.67
51249;BME280;39642;47.556;18.728;2023-03-07T08:13:07;98591.34;;;21.34;31.66
51249;BME280;39642;47.556;18.728;2023-03-07T08:15:36;98596.66;;;21.34;31.63
51249;BME280;39642;47.556;18.728;2023-03-07T08:18:02;98599.28;;;21.34;31.61
51249;BME280;39642;47.556;18.728;2023-03-07T08:20:28;98597.87;;;21.30;31.35
51249;BME280;39642;47.556;18.728;2023-03-07T08:22:53;98601.59;;;21.28;31.20
51249;BME280;39642;47.556;18.728;2023-03-07T08:25:21;98602.69;;;21.25;31.70
51249;BME280;39642;47.556;18.728;2023-03-07T08:27:50;98602.84;;;21.24;32.19
51249;BME280;39642;47.556;18.728;2023-03-07T08:41:10;98600.66;;;21.72;32.08
51249;BME280;39642;47.556;18.728;2023-03-07T08:43:36;98600.66;;;21.72;32.08
51249;BME280;39642;47.556;18.728;2023-03-07T08:46:04;98602.00;;;21.00;32.28
51249;BME280;39642;47.556;18.728;2023-03-07T08:48:30;98605.53;;;20.90;32.25
51249;BME280;39642;47.556;18.728;2023-03-07T08:50:56;98606.09;;;20.82;32.28
51249;BME280;39642;47.556;18.728;2023-03-07T08:53:22;98602.38;;;20.85;32.16
51249;BME280;39642;47.556;18.728;2023-03-07T08:55:48;98604.78;;;20.88;32.05
51249;BME280;39642;47.556;18.728;2023-03-07T08:58:15;98607.31;;;20.89;32.75
51249;BME280;39642;47.556;18.728;2023-03-07T09:00:41;98612.47;;;20.91;32.44
51249;BME280;39642;47.556;18.728;2023-03-07T09:03:07;98605.53;;;20.90;32.37
51249;BME280;39642;47.556;18.728;2023-03-07T09:05:36;98603.59;;;20.92;32.53
51249;BME280;39642;47.556;18.728;2023-03-07T09:08:04;98613.09;;;20.94;32.56
51249;BME280;39642;47.556;18.728;2023-03-07T09:10:30;98616.47;;;20.96;32.59
51249;BME280;39642;47.556;18.728;2023-03-07T09:12:56;98619.84;;;20.98;32.28
51249;BME280;39642;47.556;18.728;2023-03-07T09:15:23;98617.88;;;21.00;32.30
51249;BME280;39642;47.556;18.728;2023-03-07T09:17:50;98615.13;;;21.02;32.21
51249;BME280;39642;47.556;18.728;2023-03-07T09:20:16;98613.19;;;21.04;32.70
51249;BME280;39642;47.556;18.728;2023-03-07T09:22:42;98609.56;;;21.05;33.00
51249;BME280;39642;47.556;18.728;2023-03-07T09:25:09;98608.63;;;21.06;32.93
51249;BME280;39642;47.556;18.728;2023-03-07T09:27:35;98603.34;;;21.06;32.71
51249;BME280;39642;47.556;18.728;2023-03-07T09:30:01;98604.06;;;21.08;32.31
51249;BME280;39642;47.556;18.728;2023-03-07T09:32:27;98603.22;;;21.08;31.93
51249;BME280;39642;47.556;18.728;2023-03-07T09:34:55;98605.72;;;21.09;32.11
51249;BME280;39642;47.556;18.728;2023-03-07T09:37:21;98601.28;;;21.10;32.20
51249;BME280;39642;47.556;18.728;2023-03-07T09:39:48;98601.16;;;21.11;32.20
51249;BME280;39642;47.556;18.728;2023-03-07T09:42:37;98601.97;;;21.12;32.64
51249;BME280;39642;47.556;18.728;2023-03-07T09:56:19;98590.19;;;21.16;33.26
51249;BME280;39642;47.556;18.728;2023-03-07T09:58:49;98593.56;;;21.18;33.48
51249;BME280;39642;47.556;18.728;2023-03-07T10:01:20;98593.66;;;21.16;33.05
51249;BME280;39642;47.556;18.728;2023-03-07T10:06:40;98583.34;;;21.13;34.16
51249;BME280;39642;47.556;18.728;2023-03-07T10:09:13;98593.09;;;21.13;34.02
51249;BME280;39642;47.556;18.728;2023-03-07T10:14:43;98598.28;;;21.14;33.69
51249;BME280;39642;47.556;18.728;2023-03-07T10:19:52;98599.84;;;21.17;34.48
51249;BME280;39642;47.556;18.728;2023-03-07T10:22:41;98598.03;;;21.17;34.63
51249;BME280;39642;47.556;18.728;2023-03-07T10:28:14;98598.84;;;21.18;35.53
51249;BME280;39642;47.556;18.728;2023-03-07T10:30:43;98598.03;;;21.17;35.86
51249;BME280;39642;47.556;18.728;2023-03-07T10:33:16;98595.38;;;21.17;35.49
51249;BME280;39642;47.556;18.728;2023-03-07T10:36:09;98585.72;;;21.16;35.84
51249;BME280;39642;47.556;18.728;2023-03-07T10:38:36;98583.09;;;21.16;34.47
51249;BME280;39642;47.556;18.728;2023-03-07T10:41:16;98583.94;;;21.17;34.81
51249;BME280;39642;47.556;18.728;2023-03-07T10:43:43;98576.84;;;21.17;35.57
51249;BME280;39642;47.556;18.728;2023-03-07T10:46:22;98584.41;;;21.22;35.86
51249;BME280;39642;47.556;18.728;2023-03-07T10:48:54;98578.41;;;21.20;36.26
51249;BME280;39642;47.556;18.728;2023-03-07T10:53:55;98566.97;;;21.19;36.19
51249;BME280;39642;47.556;18.728;2023-03-07T10:56:21;98557.34;;;21.18;35.09
51249;BME280;39642;47.556;18.728;2023-03-07T11:01:23;98560.69;;;21.20;33.76
51249;BME280;39642;47.556;18.728;2023-03-07T11:06:28;98556.38;;;21.19;34.12
51249;BME280;39642;47.556;18.728;2023-03-07T11:08:55;98551.22;;;21.18;34.91
51249;BME280;39642;47.556;18.728;2023-03-07T11:11:30;98557.59;;;21.15;33.64
51249;BME280;39642;47.556;18.728;2023-03-07T11:14:07;98542.69;;;21.14;34.31
51249;BME280;39642;47.556;18.728;2023-03-07T11:16:41;98540.88;;;21.15;33.77
51249;BME280;39642;47.556;18.728;2023-03-07T11:19:30;98534.75;;;21.14;33.24
51249;BME280;39642;47.556;18.728;2023-03-07T11:21:58;98528.59;;;21.14;32.80
51249;BME280;39642;47.556;18.728;2023-03-07T11:24:27;98522.47;;;21.13;32.49
51249;BME280;39642;47.556;18.728;2023-03-07T11:26:57;98512.84;;;21.12;32.17
51249;BME280;39642;47.556;18.728;2023-03-07T11:29:24;98509.50;;;21.10;32.03
51249;BME280;39642;47.556;18.728;2023-03-07T11:32:17;98505.03;;;21.11;31.54
51249;BME280;39642;47.556;18.728;2023-03-07T11:34:52;98504.91;;;21.12;31.12
51249;BME280;39642;47.556;18.728;2023-03-07T11:37:28;98492.63;;;21.11;30.44
51249;BME280;39642;47.556;18.728;2023-03-07T11:40:16;98497.59;;;21.05;30.71
51249;BME280;39642;47.556;18.728;2023-03-07T11:45:38;98489.91;;;21.02;32.21
51249;BME280;39642;47.556;18.728;2023-03-07T11:50:54;98483.41;;;21.06;31.91
51249;BME280;39642;47.556;18.728;2023-03-07T11:56:20;98478.69;;;21.09;31.89
51249;BME280;39642;47.556;18.728;2023-03-07T12:01:55;98482.75;;;21.13;33.22
51249;BME280;39642;47.556;18.728;2023-03-07T12:09:43;98473.59;;;21.17;31.40
51249;BME280;39642;47.556;18.728;2023-03-07T12:15:20;98479.34;;;21.23;32.78
51249;BME280;39642;47.556;18.728;2023-03-07T12:20:36;98464.47;;;21.21;31.93
51249;BME280;39642;47.556;18.728;2023-03-07T12:23:08;98462.63;;;21.22;32.92
51249;BME280;39642;47.556;18.728;2023-03-07T12:25:58;98457.22;;;21.24;31.70
51249;BME280;39642;47.556;18.728;2023-03-07T12:28:32;98465.28;;;21.22;31.05
51249;BME280;39642;47.556;18.728;2023-03-07T12:39:20;98460.31;;;21.29;32.62
51249;BME280;39642;47.556;18.728;2023-03-07T12:44:40;98450.50;;;21.19;31.42
51249;BME280;39642;47.556;18.728;2023-03-07T12:47:28;98451.72;;;21.15;31.85
51249;BME280;39642;47.556;18.728;2023-03-07T12:55:45;98467.53;;;21.06;32.51
51249;BME280;39642;47.556;18.728;2023-03-07T13:01:26;98468.84;;;21.00;32.68
51249;BME280;39642;47.556;18.728;2023-03-07T13:06:42;98468.28;;;20.96;32.78
51249;BME280;39642;47.556;18.728;2023-03-07T13:09:20;98468.37;;;20.95;33.58
51249;BME280;39642;47.556;18.728;2023-03-07T13:12:06;98471.16;;;20.93;33.49
51249;BME280;39642;47.556;18.728;2023-03-07T13:14:44;98467.66;;;20.93;32.77
51249;BME280;39642;47.556;18.728;2023-03-07T13:17:12;98476.31;;;20.95;32.66
51249;BME280;39642;47.556;18.728;2023-03-07T13:24:40;98467.19;;;20.99;32.28
51249;BME280;39642;47.556;18.728;2023-03-07T13:37:50;98447.47;;;20.92;32.56
51249;BME280;39642;47.556;18.728;2023-03-07T13:55:53;98422.44;;;20.96;30.86
51249;BME280;39642;47.556;18.728;2023-03-07T13:58:29;98429.31;;;20.98;33.40
51249;BME280;39642;47.556;18.728;2023-03-07T14:01:02;98427.09;;;21.04;34.33
51249;BME280;39642;47.556;18.728;2023-03-07T14:03:35;98424.78;;;21.10;34.62
51249;BME280;39642;47.556;18.728;2023-03-07T14:06:42;98427.06;;;21.15;34.77
51249;BME280;39642;47.556;18.728;2023-03-07T14:09:21;98437.25;;;21.19;34.75
51249;BME280;39642;47.556;18.728;2023-03-07T14:12:12;98431.84;;;21.21;35.23
51249;BME280;39642;47.556;18.728;2023-03-07T14:25:30;98426.47;;;21.11;35.56
51249;BME280;39642;47.556;18.728;2023-03-07T14:28:01;98434.56;;;21.10;36.46
51249;BME280;39642;47.556;18.728;2023-03-07T14:30:32;98428.28;;;21.11;36.52
51249;BME280;39642;47.556;18.728;2023-03-07T14:32:59;98426.47;;;21.11;36.59
51249;BME280;39642;47.556;18.728;2023-03-07T14:35:52;98423.09;;;21.09;37.56
51249;BME280;39642;47.556;18.728;2023-03-07T14:38:25;98419.50;;;21.10;37.56
51249;BME280;39642;47.556;18.728;2023-03-07T14:43:59;98422.34;;;21.18;37.35
51249;BME280;39642;47.556;18.728;2023-03-07T14:49:05;98414.16;;;21.21;36.82
51249;BME280;39642;47.556;18.728;2023-03-07T14:51:37;98417.38;;;21.25;36.69
51249;BME280;39642;47.556;18.728;2023-03-07T14:54:09;98412.78;;;21.27;36.91
51249;BME280;39642;47.556;18.728;2023-03-07T14:56:38;98408.31;;;21.28;36.31
51249;BME280;39642;47.556;18.728;2023-03-07T14:59:04;98410.97;;;21.28;35.95
51249;BME280;39642;47.556;18.728;2023-03-07T15:01:36;98416.53;;;21.25;35.83
51249;BME280;39642;47.556;18.728;2023-03-07T15:04:06;98414.88;;;21.24;36.12
51249;BME280;39642;47.556;18.728;2023-03-07T15:06:41;98407.87;;;21.23;36.78
51249;BME280;39642;47.556;18.728;2023-03-07T15:09:09;98406.34;;;21.20;36.67
51249;BME280;39642;47.556;18.728;2023-03-07T15:12:05;98409.38;;;21.15;36.08
51249;BME280;39642;47.556;18.728;2023-03-07T15:14:39;98398.19;;;21.12;35.27
51249;BME280;39642;47.556;18.728;2023-03-07T15:17:22;98396.41;;;21.12;35.10
51249;BME280;39642;47.556;18.728;2023-03-07T15:20:04;98392.87;;;21.12;35.39